sensor_id;sensor_type;location;lat;lon;timestamp;P1;durP1;ratioP1;P2;durP2;ratioP2
36747;SDS011;22716;51.556;5.080;2023-08-08T00:00:13;7.30;;;3.13;;
36747;SDS011;22716;51.556;5.080;2023-08-08T00:02:43;8.67;;;3.30;;
36747;SDS011;22716;51.556;5.080;2023-08-08T00:05:15;7.10;;;2.67;;
36747;SDS011;22716;51.556;5.080;2023-08-08T00:07:44;9.33;;;3.07;;
36747;SDS011;22716;51.556;5.080;2023-08-08T00:10:12;6.37;;;2.23;;
36747;SDS011;22716;51.556;5.080;2023-08-08T00:12:41;4.90;;;3.87;;
36747;SDS011;22716;51.556;5.080;2023-08-08T00:15:10;5.13;;;2.70;;
36747;SDS011;22716;51.556;5.080;2023-08-08T00:17:39;4.07;;;2.37;;
36747;SDS011;22716;51.556;5.080;2023-08-08T00:20:08;5.63;;;2.53;;
36747;SDS011;22716;51.556;5.080;2023-08-08T00:22:41;10.37;;;3.07;;
36747;SDS011;22716;51.556;5.080;2023-08-08T00:25:10;5.20;;;2.73;;
36747;SDS011;22716;51.556;5.080;2023-08-08T00:27:38;10.23;;;3.90;;
36747;SDS011;22716;51.556;5.080;2023-08-08T00:30:10;7.83;;;3.40;;
36747;SDS011;22716;51.556;5.080;2023-08-08T00:32:40;4.03;;;2.93;;
36747;SDS011;22716;51.556;5.080;2023-08-08T00:35:08;5.67;;;2.50;;
36747;SDS011;22716;51.556;5.080;2023-08-08T00:37:37;6.30;;;3.07;;
36747;SDS011;22716;51.556;5.080;2023-08-08T00:40:10;7.63;;;3.07;;
36747;SDS011;22716;51.556;5.080;2023-08-08T00:42:39;5.67;;;2.70;;
36747;SDS011;22716;51.556;5.080;2023-08-08T00:45:08;7.03;;;3.30;;
36747;SDS011;22716;51.556;5.080;2023-08-08T00:47:37;6.60;;;3.57;;
36747;SDS011;22716;51.556;5.080;2023-08-08T00:50:06;7.10;;;3.40;;
36747;SDS011;22716;51.556;5.080;2023-08-08T00:52:37;6.87;;;3.17;;
36747;SDS011;22716;51.556;5.080;2023-08-08T00:55:09;9.83;;;3.30;;
36747;SDS011;22716;51.556;5.080;2023-08-08T00:57:40;6.23;;;3.17;;
36747;SDS011;22716;51.556;5.080;2023-08-08T01:00:09;9.40;;;4.00;;
36747;SDS011;22716;51.556;5.080;2023-08-08T01:02:38;11.73;;;4.50;;
36747;SDS011;22716;51.556;5.080;2023-08-08T01:05:08;5.03;;;2.83;;
36747;SDS011;22716;51.556;5.080;2023-08-08T01:07:41;6.67;;;2.90;;
36747;SDS011;22716;51.556;5.080;2023-08-08T01:10:19;7.40;;;3.50;;
36747;SDS011;22716;51.556;5.080;2023-08-08T01:12:52;9.53;;;3.63;;
36747;SDS011;22716;51.556;5.080;2023-08-08T01:15:24;6.10;;;4.68;;
36747;SDS011;22716;51.556;5.080;2023-08-08T01:17:57;8.63;;;3.37;;
36747;SDS011;22716;51.556;5.080;2023-08-08T01:20:27;11.03;;;3.27;;
36747;SDS011;22716;51.556;5.080;2023-08-08T01:22:58;10.70;;;4.27;;
36747;SDS011;22716;51.556;5.080;2023-08-08T01:25:41;9.97;;;4.53;;
36747;SDS011;22716;51.556;5.080;2023-08-08T01:28:10;10.40;;;5.13;;
36747;SDS011;22716;51.556;5.080;2023-08-08T01:30:39;11.48;;;4.60;;
36747;SDS011;22716;51.556;5.080;2023-08-08T01:33:09;7.13;;;3.30;;
36747;SDS011;22716;51.556;5.080;2023-08-08T01:35:37;22.00;;;4.77;;
36747;SDS011;22716;51.556;5.080;2023-08-08T01:38:09;9.07;;;3.37;;
36747;SDS011;22716;51.556;5.080;2023-08-08T01:43:13;7.43;;;3.63;;
36747;SDS011;22716;51.556;5.080;2023-08-08T01:45:43;9.45;;;3.90;;
36747;SDS011;22716;51.556;5.080;2023-08-08T01:48:12;10.43;;;4.30;;
36747;SDS011;22716;51.556;5.080;2023-08-08T01:50:41;7.47;;;3.43;;
36747;SDS011;22716;51.556;5.080;2023-08-08T01:53:10;12.93;;;4.17;;
36747;SDS011;22716;51.556;5.080;2023-08-08T01:55:39;6.67;;;3.90;;
36747;SDS011;22716;51.556;5.080;2023-08-08T01:58:11;10.23;;;4.80;;
36747;SDS011;22716;51.556;5.080;2023-08-08T02:00:40;11.63;;;4.00;;
36747;SDS011;22716;51.556;5.080;2023-08-08T02:03:10;12.70;;;4.30;;
36747;SDS011;22716;51.556;5.080;2023-08-08T02:05:39;13.10;;;4.60;;
36747;SDS011;22716;51.556;5.080;2023-08-08T02:08:08;9.98;;;4.97;;
36747;SDS011;22716;51.556;5.080;2023-08-08T02:10:38;9.33;;;3.53;;
36747;SDS011;22716;51.556;5.080;2023-08-08T02:13:07;7.87;;;4.10;;
36747;SDS011;22716;51.556;5.080;2023-08-08T02:15:38;13.53;;;5.33;;
36747;SDS011;22716;51.556;5.080;2023-08-08T02:18:07;10.97;;;4.73;;
36747;SDS011;22716;51.556;5.080;2023-08-08T02:20:36;12.75;;;4.60;;
36747;SDS011;22716;51.556;5.080;2023-08-08T02:23:05;9.57;;;3.93;;
36747;SDS011;22716;51.556;5.080;2023-08-08T02:25:35;8.57;;;4.68;;
36747;SDS011;22716;51.556;5.080;2023-08-08T02:28:04;8.23;;;4.53;;
36747;SDS011;22716;51.556;5.080;2023-08-08T02:30:33;8.57;;;4.63;;
36747;SDS011;22716;51.556;5.080;2023-08-08T02:33:05;13.20;;;6.10;;
36747;SDS011;22716;51.556;5.080;2023-08-08T02:35:34;11.23;;;5.40;;
36747;SDS011;22716;51.556;5.080;2023-08-08T02:38:04;11.20;;;5.22;;
36747;SDS011;22716;51.556;5.080;2023-08-08T02:40:33;14.93;;;5.55;;
36747;SDS011;22716;51.556;5.080;2023-08-08T02:43:02;14.60;;;5.90;;
36747;SDS011;22716;51.556;5.080;2023-08-08T02:45:30;12.85;;;5.97;;
36747;SDS011;22716;51.556;5.080;2023-08-08T02:47:59;13.87;;;6.10;;
36747;SDS011;22716;51.556;5.080;2023-08-08T02:50:31;10.80;;;5.40;;
36747;SDS011;22716;51.556;5.080;2023-08-08T02:53:00;9.57;;;6.30;;
36747;SDS011;22716;51.556;5.080;2023-08-08T02:55:29;12.30;;;7.07;;
36747;SDS011;22716;51.556;5.080;2023-08-08T02:57:58;16.37;;;6.10;;
36747;SDS011;22716;51.556;5.080;2023-08-08T03:00:26;17.63;;;7.60;;
36747;SDS011;22716;51.556;5.080;2023-08-08T03:02:55;15.57;;;6.00;;
36747;SDS011;22716;51.556;5.080;2023-08-08T03:05:24;10.70;;;5.27;;
36747;SDS011;22716;51.556;5.080;2023-08-08T03:07:56;16.75;;;6.18;;
36747;SDS011;22716;51.556;5.080;2023-08-08T03:10:24;13.77;;;5.77;;
36747;SDS011;22716;51.556;5.080;2023-08-08T03:12:53;11.97;;;6.97;;
36747;SDS011;22716;51.556;5.080;2023-08-08T03:15:22;15.60;;;8.20;;
36747;SDS011;22716;51.556;5.080;2023-08-08T03:17:51;19.53;;;7.23;;
36747;SDS011;22716;51.556;5.080;2023-08-08T03:20:21;15.43;;;6.90;;
36747;SDS011;22716;51.556;5.080;2023-08-08T03:22:49;10.90;;;5.97;;
36747;SDS011;22716;51.556;5.080;2023-08-08T03:25:21;15.95;;;7.15;;
36747;SDS011;22716;51.556;5.080;2023-08-08T03:27:50;15.10;;;6.17;;
36747;SDS011;22716;51.556;5.080;2023-08-08T03:30:19;20.20;;;7.00;;
36747;SDS011;22716;51.556;5.080;2023-08-08T03:32:48;17.40;;;6.03;;
36747;SDS011;22716;51.556;5.080;2023-08-08T03:35:16;16.52;;;6.65;;
36747;SDS011;22716;51.556;5.080;2023-08-08T03:37:45;14.77;;;7.27;;
36747;SDS011;22716;51.556;5.080;2023-08-08T03:40:14;16.95;;;6.65;;
36747;SDS011;22716;51.556;5.080;2023-08-08T03:42:46;19.83;;;7.57;;
36747;SDS011;22716;51.556;5.080;2023-08-08T03:45:14;16.57;;;7.43;;
36747;SDS011;22716;51.556;5.080;2023-08-08T03:47:43;23.35;;;7.43;;
36747;SDS011;22716;51.556;5.080;2023-08-08T03:50:12;16.42;;;6.97;;
36747;SDS011;22716;51.556;5.080;2023-08-08T03:52:41;19.27;;;7.40;;
36747;SDS011;22716;51.556;5.080;2023-08-08T03:55:09;15.35;;;7.07;;
36747;SDS011;22716;51.556;5.080;2023-08-08T03:57:38;13.87;;;6.93;;
36747;SDS011;22716;51.556;5.080;2023-08-08T04:00:11;17.25;;;6.65;;
36747;SDS011;22716;51.556;5.080;2023-08-08T04:02:40;18.23;;;8.00;;
36747;SDS011;22716;51.556;5.080;2023-08-08T04:05:09;18.67;;;6.83;;
36747;SDS011;22716;51.556;5.080;2023-08-08T04:07:38;12.83;;;7.07;;
36747;SDS011;22716;51.556;5.080;2023-08-08T04:10:07;10.70;;;6.47;;
36747;SDS011;22716;51.556;5.080;2023-08-08T04:12:36;16.80;;;6.77;;
36747;SDS011;22716;51.556;5.080;2023-08-08T04:15:05;17.70;;;8.00;;
36747;SDS011;22716;51.556;5.080;2023-08-08T04:17:38;13.77;;;6.47;;
36747;SDS011;22716;51.556;5.080;2023-08-08T04:20:07;15.45;;;6.40;;
36747;SDS011;22716;51.556;5.080;2023-08-08T04:22:38;15.57;;;8.70;;
36747;SDS011;22716;51.556;5.080;2023-08-08T04:25:07;14.80;;;7.03;;
36747;SDS011;22716;51.556;5.080;2023-08-08T04:27:36;19.75;;;6.65;;
36747;SDS011;22716;51.556;5.080;2023-08-08T04:30:06;44.13;;;9.17;;
36747;SDS011;22716;51.556;5.080;2023-08-08T04:32:39;18.80;;;5.65;;
36747;SDS011;22716;51.556;5.080;2023-08-08T04:35:07;18.38;;;6.40;;
36747;SDS011;22716;51.556;5.080;2023-08-08T04:37:36;17.50;;;8.07;;
36747;SDS011;22716;51.556;5.080;2023-08-08T04:40:06;19.40;;;7.13;;
36747;SDS011;22716;51.556;5.080;2023-08-08T04:42:36;15.20;;;7.37;;
36747;SDS011;22716;51.556;5.080;2023-08-08T04:45:06;16.90;;;7.72;;
36747;SDS011;22716;51.556;5.080;2023-08-08T04:47:41;16.75;;;6.82;;
36747;SDS011;22716;51.556;5.080;2023-08-08T04:50:08;13.33;;;5.73;;
36747;SDS011;22716;51.556;5.080;2023-08-08T04:52:37;16.17;;;5.57;;
36747;SDS011;22716;51.556;5.080;2023-08-08T04:55:07;13.32;;;5.95;;
36747;SDS011;22716;51.556;5.080;2023-08-08T04:57:36;11.10;;;6.13;;
36747;SDS011;22716;51.556;5.080;2023-08-08T05:00:06;14.82;;;6.25;;
36747;SDS011;22716;51.556;5.080;2023-08-08T05:02:36;16.93;;;6.20;;
36747;SDS011;22716;51.556;5.080;2023-08-08T05:05:09;17.53;;;6.23;;
36747;SDS011;22716;51.556;5.080;2023-08-08T05:07:38;16.27;;;6.55;;
36747;SDS011;22716;51.556;5.080;2023-08-08T05:10:07;14.63;;;6.23;;
36747;SDS011;22716;51.556;5.080;2023-08-08T05:12:36;11.27;;;6.00;;
36747;SDS011;22716;51.556;5.080;2023-08-08T05:15:05;15.37;;;6.10;;
36747;SDS011;22716;51.556;5.080;2023-08-08T05:17:35;10.15;;;6.18;;
36747;SDS011;22716;51.556;5.080;2023-08-08T05:20:05;16.73;;;6.20;;
36747;SDS011;22716;51.556;5.080;2023-08-08T05:22:39;14.55;;;6.15;;
36747;SDS011;22716;51.556;5.080;2023-08-08T05:25:08;15.55;;;6.78;;
36747;SDS011;22716;51.556;5.080;2023-08-08T05:27:37;13.57;;;6.30;;
36747;SDS011;22716;51.556;5.080;2023-08-08T05:30:07;14.80;;;6.10;;
36747;SDS011;22716;51.556;5.080;2023-08-08T05:32:36;11.07;;;5.83;;
36747;SDS011;22716;51.556;5.080;2023-08-08T05:35:06;13.00;;;5.57;;
36747;SDS011;22716;51.556;5.080;2023-08-08T05:37:38;13.77;;;5.47;;
36747;SDS011;22716;51.556;5.080;2023-08-08T05:40:08;19.10;;;6.20;;
36747;SDS011;22716;51.556;5.080;2023-08-08T05:42:38;19.40;;;6.77;;
36747;SDS011;22716;51.556;5.080;2023-08-08T05:45:08;11.57;;;6.30;;
36747;SDS011;22716;51.556;5.080;2023-08-08T05:47:37;17.07;;;6.77;;
36747;SDS011;22716;51.556;5.080;2023-08-08T05:50:09;15.13;;;7.03;;
36747;SDS011;22716;51.556;5.080;2023-08-08T05:52:38;28.17;;;7.63;;
36747;SDS011;22716;51.556;5.080;2023-08-08T05:55:07;16.73;;;5.70;;
36747;SDS011;22716;51.556;5.080;2023-08-08T05:57:36;12.23;;;6.40;;
36747;SDS011;22716;51.556;5.080;2023-08-08T06:00:06;15.77;;;5.77;;
36747;SDS011;22716;51.556;5.080;2023-08-08T06:02:37;16.73;;;6.55;;
36747;SDS011;22716;51.556;5.080;2023-08-08T06:05:10;20.53;;;6.87;;
36747;SDS011;22716;51.556;5.080;2023-08-08T06:07:39;14.45;;;4.97;;
36747;SDS011;22716;51.556;5.080;2023-08-08T06:10:09;16.20;;;6.23;;
36747;SDS011;22716;51.556;5.080;2023-08-08T06:12:38;14.65;;;5.68;;
36747;SDS011;22716;51.556;5.080;2023-08-08T06:15:08;18.93;;;6.10;;
36747;SDS011;22716;51.556;5.080;2023-08-08T06:17:37;16.50;;;6.47;;
36747;SDS011;22716;51.556;5.080;2023-08-08T06:20:10;17.37;;;6.17;;
36747;SDS011;22716;51.556;5.080;2023-08-08T06:22:39;16.73;;;5.83;;
36747;SDS011;22716;51.556;5.080;2023-08-08T06:25:09;14.37;;;5.07;;
36747;SDS011;22716;51.556;5.080;2023-08-08T06:27:38;17.90;;;6.50;;
36747;SDS011;22716;51.556;5.080;2023-08-08T06:30:08;19.10;;;5.20;;
36747;SDS011;22716;51.556;5.080;2023-08-08T06:32:37;14.00;;;5.40;;
36747;SDS011;22716;51.556;5.080;2023-08-08T06:35:09;11.13;;;4.50;;
36747;SDS011;22716;51.556;5.080;2023-08-08T06:37:38;12.53;;;5.57;;
36747;SDS011;22716;51.556;5.080;2023-08-08T06:40:08;11.07;;;5.23;;
36747;SDS011;22716;51.556;5.080;2023-08-08T06:42:38;12.00;;;5.67;;
36747;SDS011;22716;51.556;5.080;2023-08-08T06:45:07;11.67;;;5.13;;
36747;SDS011;22716;51.556;5.080;2023-08-08T06:47:37;12.13;;;5.07;;
36747;SDS011;22716;51.556;5.080;2023-08-08T06:50:09;18.98;;;5.60;;
36747;SDS011;22716;51.556;5.080;2023-08-08T06:52:38;13.13;;;5.22;;
36747;SDS011;22716;51.556;5.080;2023-08-08T06:55:08;11.20;;;5.00;;
36747;SDS011;22716;51.556;5.080;2023-08-08T06:57:38;12.50;;;5.13;;
36747;SDS011;22716;51.556;5.080;2023-08-08T07:00:07;15.47;;;5.23;;
36747;SDS011;22716;51.556;5.080;2023-08-08T07:02:39;11.17;;;5.07;;
36747;SDS011;22716;51.556;5.080;2023-08-08T07:05:11;9.27;;;5.07;;
36747;SDS011;22716;51.556;5.080;2023-08-08T07:07:39;11.07;;;4.97;;
36747;SDS011;22716;51.556;5.080;2023-08-08T07:10:10;9.60;;;4.03;;
36747;SDS011;22716;51.556;5.080;2023-08-08T07:12:39;14.13;;;5.03;;
36747;SDS011;22716;51.556;5.080;2023-08-08T07:15:08;8.90;;;3.78;;
36747;SDS011;22716;51.556;5.080;2023-08-08T07:17:38;13.47;;;3.67;;
36747;SDS011;22716;51.556;5.080;2023-08-08T07:20:07;9.20;;;3.87;;
36747;SDS011;22716;51.556;5.080;2023-08-08T07:22:41;7.70;;;3.30;;
36747;SDS011;22716;51.556;5.080;2023-08-08T07:25:10;9.77;;;4.23;;
36747;SDS011;22716;51.556;5.080;2023-08-08T07:27:39;8.83;;;3.80;;
36747;SDS011;22716;51.556;5.080;2023-08-08T07:30:08;8.23;;;4.20;;
36747;SDS011;22716;51.556;5.080;2023-08-08T07:32:38;9.60;;;3.20;;
36747;SDS011;22716;51.556;5.080;2023-08-08T07:35:08;6.13;;;2.40;;
36747;SDS011;22716;51.556;5.080;2023-08-08T07:37:37;7.10;;;3.33;;
36747;SDS011;22716;51.556;5.080;2023-08-08T07:40:16;5.65;;;2.92;;
36747;SDS011;22716;51.556;5.080;2023-08-08T07:42:48;8.23;;;2.13;;
36747;SDS011;22716;51.556;5.080;2023-08-08T07:45:18;7.33;;;4.03;;
36747;SDS011;22716;51.556;5.080;2023-08-08T07:47:47;10.13;;;4.30;;
36747;SDS011;22716;51.556;5.080;2023-08-08T07:50:16;6.70;;;3.13;;
36747;SDS011;22716;51.556;5.080;2023-08-08T07:52:47;8.77;;;2.70;;
36747;SDS011;22716;51.556;5.080;2023-08-08T07:55:16;10.50;;;3.38;;
36747;SDS011;22716;51.556;5.080;2023-08-08T07:57:45;13.00;;;3.93;;
36747;SDS011;22716;51.556;5.080;2023-08-08T08:00:14;22.87;;;8.30;;
36747;SDS011;22716;51.556;5.080;2023-08-08T08:02:47;13.70;;;4.13;;
36747;SDS011;22716;51.556;5.080;2023-08-08T08:05:16;11.40;;;4.20;;
36747;SDS011;22716;51.556;5.080;2023-08-08T08:07:47;51.20;;;19.55;;
36747;SDS011;22716;51.556;5.080;2023-08-08T08:10:16;20.77;;;9.88;;
36747;SDS011;22716;51.556;5.080;2023-08-08T08:12:45;9.13;;;3.42;;
36747;SDS011;22716;51.556;5.080;2023-08-08T08:15:14;25.97;;;9.20;;
36747;SDS011;22716;51.556;5.080;2023-08-08T08:17:42;13.98;;;4.35;;
36747;SDS011;22716;51.556;5.080;2023-08-08T08:20:14;14.50;;;5.28;;
36747;SDS011;22716;51.556;5.080;2023-08-08T08:22:43;22.60;;;8.40;;
36747;SDS011;22716;51.556;5.080;2023-08-08T08:25:15;9.47;;;4.30;;
36747;SDS011;22716;51.556;5.080;2023-08-08T08:27:45;14.90;;;4.97;;
36747;SDS011;22716;51.556;5.080;2023-08-08T08:30:14;24.10;;;8.23;;
36747;SDS011;22716;51.556;5.080;2023-08-08T08:32:44;27.55;;;11.70;;
36747;SDS011;22716;51.556;5.080;2023-08-08T08:35:13;9.48;;;5.10;;
36747;SDS011;22716;51.556;5.080;2023-08-08T08:37:42;6.55;;;2.95;;
36747;SDS011;22716;51.556;5.080;2023-08-08T08:40:11;8.82;;;2.80;;
36747;SDS011;22716;51.556;5.080;2023-08-08T08:42:42;7.60;;;3.10;;
36747;SDS011;22716;51.556;5.080;2023-08-08T08:45:13;13.82;;;4.22;;
36747;SDS011;22716;51.556;5.080;2023-08-08T08:47:45;7.10;;;2.20;;
36747;SDS011;22716;51.556;5.080;2023-08-08T08:50:15;8.70;;;2.17;;
36747;SDS011;22716;51.556;5.080;2023-08-08T08:52:46;26.63;;;11.25;;
36747;SDS011;22716;51.556;5.080;2023-08-08T08:55:16;15.70;;;6.03;;
36747;SDS011;22716;51.556;5.080;2023-08-08T08:57:47;8.98;;;2.95;;
36747;SDS011;22716;51.556;5.080;2023-08-08T09:00:17;5.07;;;2.40;;
36747;SDS011;22716;51.556;5.080;2023-08-08T09:02:46;6.77;;;2.10;;
36747;SDS011;22716;51.556;5.080;2023-08-08T09:05:15;5.83;;;2.23;;
36747;SDS011;22716;51.556;5.080;2023-08-08T09:07:49;7.97;;;2.15;;
36747;SDS011;22716;51.556;5.080;2023-08-08T09:10:19;7.63;;;2.27;;
36747;SDS011;22716;51.556;5.080;2023-08-08T09:12:50;5.17;;;2.87;;
36747;SDS011;22716;51.556;5.080;2023-08-08T09:15:19;5.95;;;2.13;;
36747;SDS011;22716;51.556;5.080;2023-08-08T09:17:48;9.07;;;1.90;;
36747;SDS011;22716;51.556;5.080;2023-08-08T09:20:17;5.93;;;1.60;;
36747;SDS011;22716;51.556;5.080;2023-08-08T09:22:46;6.00;;;2.05;;
36747;SDS011;22716;51.556;5.080;2023-08-08T09:25:14;9.90;;;1.85;;
36747;SDS011;22716;51.556;5.080;2023-08-08T09:27:43;7.18;;;2.17;;
36747;SDS011;22716;51.556;5.080;2023-08-08T09:30:15;4.72;;;1.52;;
36747;SDS011;22716;51.556;5.080;2023-08-08T09:32:44;11.50;;;2.30;;
36747;SDS011;22716;51.556;5.080;2023-08-08T09:35:13;12.77;;;5.13;;
36747;SDS011;22716;51.556;5.080;2023-08-08T09:37:44;16.03;;;6.40;;
36747;SDS011;22716;51.556;5.080;2023-08-08T09:40:13;7.77;;;2.87;;
36747;SDS011;22716;51.556;5.080;2023-08-08T09:42:42;9.73;;;3.40;;
36747;SDS011;22716;51.556;5.080;2023-08-08T09:45:11;5.93;;;1.83;;
36747;SDS011;22716;51.556;5.080;2023-08-08T09:47:43;4.93;;;1.60;;
36747;SDS011;22716;51.556;5.080;2023-08-08T09:50:12;4.78;;;1.60;;
36747;SDS011;22716;51.556;5.080;2023-08-08T09:52:41;3.95;;;1.20;;
36747;SDS011;22716;51.556;5.080;2023-08-08T09:55:11;2.70;;;1.30;;
36747;SDS011;22716;51.556;5.080;2023-08-08T09:57:41;8.35;;;2.50;;
36747;SDS011;22716;51.556;5.080;2023-08-08T10:00:10;1.83;;;1.05;;
36747;SDS011;22716;51.556;5.080;2023-08-08T10:02:45;7.10;;;1.50;;
36747;SDS011;22716;51.556;5.080;2023-08-08T10:05:14;2.22;;;1.30;;
36747;SDS011;22716;51.556;5.080;2023-08-08T10:07:44;12.85;;;1.52;;
36747;SDS011;22716;51.556;5.080;2023-08-08T10:10:13;5.28;;;2.53;;
36747;SDS011;22716;51.556;5.080;2023-08-08T10:12:44;4.35;;;1.88;;
36747;SDS011;22716;51.556;5.080;2023-08-08T10:15:13;3.15;;;1.50;;
36747;SDS011;22716;51.556;5.080;2023-08-08T10:17:44;10.95;;;2.75;;
36747;SDS011;22716;51.556;5.080;2023-08-08T10:20:14;6.80;;;1.67;;
36747;SDS011;22716;51.556;5.080;2023-08-08T10:22:47;6.33;;;3.13;;
36747;SDS011;22716;51.556;5.080;2023-08-08T10:25:20;5.55;;;2.30;;
36747;SDS011;22716;51.556;5.080;2023-08-08T10:28:01;4.80;;;1.80;;
36747;SDS011;22716;51.556;5.080;2023-08-08T10:30:41;4.18;;;1.75;;
36747;SDS011;22716;51.556;5.080;2023-08-08T10:33:20;4.75;;;1.73;;
36747;SDS011;22716;51.556;5.080;2023-08-08T10:35:59;2.25;;;1.23;;
36747;SDS011;22716;51.556;5.080;2023-08-08T10:38:39;18.92;;;6.25;;
36747;SDS011;22716;51.556;5.080;2023-08-08T10:41:09;5.68;;;1.63;;
36747;SDS011;22716;51.556;5.080;2023-08-08T10:43:46;5.70;;;2.05;;
36747;SDS011;22716;51.556;5.080;2023-08-08T10:46:22;6.63;;;1.80;;
36747;SDS011;22716;51.556;5.080;2023-08-08T10:48:56;15.57;;;5.90;;
36747;SDS011;22716;51.556;5.080;2023-08-08T10:51:31;7.30;;;2.13;;
36747;SDS011;22716;51.556;5.080;2023-08-08T10:54:03;3.47;;;1.40;;
36747;SDS011;22716;51.556;5.080;2023-08-08T10:56:34;2.78;;;1.33;;
36747;SDS011;22716;51.556;5.080;2023-08-08T10:59:12;3.95;;;1.33;;
36747;SDS011;22716;51.556;5.080;2023-08-08T11:01:49;3.10;;;1.63;;
36747;SDS011;22716;51.556;5.080;2023-08-08T11:04:24;11.30;;;3.63;;
36747;SDS011;22716;51.556;5.080;2023-08-08T11:06:55;4.97;;;1.70;;
36747;SDS011;22716;51.556;5.080;2023-08-08T11:09:24;4.82;;;1.58;;
36747;SDS011;22716;51.556;5.080;2023-08-08T11:11:54;3.05;;;1.25;;
36747;SDS011;22716;51.556;5.080;2023-08-08T11:14:22;2.90;;;1.48;;
36747;SDS011;22716;51.556;5.080;2023-08-08T11:16:51;7.20;;;2.97;;
36747;SDS011;22716;51.556;5.080;2023-08-08T11:19:21;4.03;;;1.95;;
36747;SDS011;22716;51.556;5.080;2023-08-08T11:21:52;9.80;;;1.98;;
36747;SDS011;22716;51.556;5.080;2023-08-08T11:24:21;11.48;;;3.47;;
36747;SDS011;22716;51.556;5.080;2023-08-08T11:26:50;6.07;;;1.77;;
36747;SDS011;22716;51.556;5.080;2023-08-08T11:29:27;13.50;;;5.07;;
36747;SDS011;22716;51.556;5.080;2023-08-08T11:31:56;2.47;;;1.33;;
36747;SDS011;22716;51.556;5.080;2023-08-08T11:34:38;3.35;;;1.60;;
36747;SDS011;22716;51.556;5.080;2023-08-08T11:37:07;10.97;;;3.37;;
36747;SDS011;22716;51.556;5.080;2023-08-08T11:39:37;5.40;;;1.65;;
36747;SDS011;22716;51.556;5.080;2023-08-08T11:42:06;2.95;;;0.80;;
36747;SDS011;22716;51.556;5.080;2023-08-08T11:44:35;1.45;;;1.10;;
36747;SDS011;22716;51.556;5.080;2023-08-08T11:47:05;3.13;;;0.90;;
36747;SDS011;22716;51.556;5.080;2023-08-08T11:49:42;5.70;;;1.93;;
36747;SDS011;22716;51.556;5.080;2023-08-08T11:52:14;4.45;;;1.48;;
36747;SDS011;22716;51.556;5.080;2023-08-08T11:54:43;1.65;;;0.88;;
36747;SDS011;22716;51.556;5.080;2023-08-08T11:57:12;1.63;;;0.93;;
36747;SDS011;22716;51.556;5.080;2023-08-08T11:59:42;3.03;;;1.17;;
36747;SDS011;22716;51.556;5.080;2023-08-08T12:02:11;10.70;;;3.50;;
36747;SDS011;22716;51.556;5.080;2023-08-08T12:04:46;3.78;;;1.20;;
36747;SDS011;22716;51.556;5.080;2023-08-08T12:07:16;7.97;;;2.77;;
36747;SDS011;22716;51.556;5.080;2023-08-08T12:09:46;2.92;;;1.52;;
36747;SDS011;22716;51.556;5.080;2023-08-08T12:12:16;7.77;;;3.57;;
36747;SDS011;22716;51.556;5.080;2023-08-08T12:14:44;12.67;;;5.27;;
36747;SDS011;22716;51.556;5.080;2023-08-08T12:17:15;6.90;;;3.07;;
36747;SDS011;22716;51.556;5.080;2023-08-08T12:19:47;4.27;;;0.90;;
36747;SDS011;22716;51.556;5.080;2023-08-08T12:22:16;2.00;;;0.90;;
36747;SDS011;22716;51.556;5.080;2023-08-08T12:24:47;1.08;;;0.80;;
36747;SDS011;22716;51.556;5.080;2023-08-08T12:27:16;2.33;;;1.00;;
36747;SDS011;22716;51.556;5.080;2023-08-08T12:29:45;5.80;;;0.73;;
36747;SDS011;22716;51.556;5.080;2023-08-08T12:32:13;2.00;;;1.08;;
36747;SDS011;22716;51.556;5.080;2023-08-08T12:34:42;6.30;;;1.10;;
36747;SDS011;22716;51.556;5.080;2023-08-08T12:37:14;3.40;;;1.30;;
36747;SDS011;22716;51.556;5.080;2023-08-08T12:39:43;5.43;;;2.90;;
36747;SDS011;22716;51.556;5.080;2023-08-08T12:42:12;2.50;;;1.17;;
36747;SDS011;22716;51.556;5.080;2023-08-08T12:44:41;2.78;;;1.67;;
36747;SDS011;22716;51.556;5.080;2023-08-08T12:47:12;6.43;;;3.23;;
36747;SDS011;22716;51.556;5.080;2023-08-08T12:49:41;2.70;;;0.63;;
36747;SDS011;22716;51.556;5.080;2023-08-08T12:52:10;9.97;;;4.57;;
36747;SDS011;22716;51.556;5.080;2023-08-08T12:54:41;3.83;;;1.00;;
36747;SDS011;22716;51.556;5.080;2023-08-08T12:57:11;2.93;;;1.30;;
36747;SDS011;22716;51.556;5.080;2023-08-08T12:59:40;2.42;;;0.95;;
36747;SDS011;22716;51.556;5.080;2023-08-08T13:02:08;3.53;;;1.93;;
36747;SDS011;22716;51.556;5.080;2023-08-08T13:04:37;1.87;;;1.10;;
36747;SDS011;22716;51.556;5.080;2023-08-08T13:07:06;3.03;;;0.80;;
36747;SDS011;22716;51.556;5.080;2023-08-08T13:09:35;2.17;;;1.27;;
36747;SDS011;22716;51.556;5.080;2023-08-08T13:12:07;3.13;;;1.10;;
36747;SDS011;22716;51.556;5.080;2023-08-08T13:14:36;1.75;;;0.70;;
36747;SDS011;22716;51.556;5.080;2023-08-08T13:17:05;1.00;;;0.83;;
36747;SDS011;22716;51.556;5.080;2023-08-08T13:19:35;4.83;;;2.90;;
36747;SDS011;22716;51.556;5.080;2023-08-08T13:22:04;11.57;;;3.20;;
36747;SDS011;22716;51.556;5.080;2023-08-08T13:24:32;2.97;;;1.60;;
36747;SDS011;22716;51.556;5.080;2023-08-08T13:27:03;0.70;;;0.70;;
36747;SDS011;22716;51.556;5.080;2023-08-08T13:29:35;4.50;;;2.10;;
36747;SDS011;22716;51.556;5.080;2023-08-08T13:32:04;3.70;;;1.33;;
36747;SDS011;22716;51.556;5.080;2023-08-08T13:34:32;4.83;;;1.63;;
36747;SDS011;22716;51.556;5.080;2023-08-08T13:37:01;3.60;;;1.37;;
36747;SDS011;22716;51.556;5.080;2023-08-08T13:39:30;1.57;;;0.90;;
36747;SDS011;22716;51.556;5.080;2023-08-08T13:41:59;2.73;;;1.50;;
36747;SDS011;22716;51.556;5.080;2023-08-08T13:44:28;4.47;;;1.70;;
36747;SDS011;22716;51.556;5.080;2023-08-08T13:46:59;1.83;;;0.93;;
36747;SDS011;22716;51.556;5.080;2023-08-08T13:49:28;1.83;;;1.20;;
36747;SDS011;22716;51.556;5.080;2023-08-08T13:51:57;2.60;;;1.10;;
36747;SDS011;22716;51.556;5.080;2023-08-08T13:54:26;2.53;;;1.60;;
36747;SDS011;22716;51.556;5.080;2023-08-08T13:56:54;3.13;;;1.40;;
36747;SDS011;22716;51.556;5.080;2023-08-08T13:59:23;1.67;;;0.90;;
36747;SDS011;22716;51.556;5.080;2023-08-08T14:01:52;1.80;;;0.73;;
36747;SDS011;22716;51.556;5.080;2023-08-08T14:04:24;2.87;;;1.00;;
36747;SDS011;22716;51.556;5.080;2023-08-08T14:06:53;4.00;;;1.55;;
36747;SDS011;22716;51.556;5.080;2023-08-08T14:09:21;2.33;;;1.10;;
36747;SDS011;22716;51.556;5.080;2023-08-08T14:11:51;1.02;;;0.80;;
36747;SDS011;22716;51.556;5.080;2023-08-08T14:14:19;2.25;;;1.20;;
36747;SDS011;22716;51.556;5.080;2023-08-08T14:16:48;2.65;;;0.80;;
36747;SDS011;22716;51.556;5.080;2023-08-08T14:19:17;2.33;;;1.10;;
36747;SDS011;22716;51.556;5.080;2023-08-08T14:21:48;1.23;;;0.80;;
36747;SDS011;22716;51.556;5.080;2023-08-08T14:24:17;1.83;;;0.75;;
36747;SDS011;22716;51.556;5.080;2023-08-08T14:26:46;10.20;;;1.00;;
36747;SDS011;22716;51.556;5.080;2023-08-08T14:29:15;4.22;;;1.27;;
36747;SDS011;22716;51.556;5.080;2023-08-08T14:31:44;2.25;;;1.02;;
36747;SDS011;22716;51.556;5.080;2023-08-08T14:34:14;1.48;;;0.90;;
36747;SDS011;22716;51.556;5.080;2023-08-08T14:36:43;2.78;;;1.25;;
36747;SDS011;22716;51.556;5.080;2023-08-08T14:39:15;2.47;;;0.95;;
36747;SDS011;22716;51.556;5.080;2023-08-08T14:41:43;3.50;;;1.40;;
36747;SDS011;22716;51.556;5.080;2023-08-08T14:44:12;2.65;;;1.58;;
36747;SDS011;22716;51.556;5.080;2023-08-08T14:46:41;5.63;;;1.42;;
36747;SDS011;22716;51.556;5.080;2023-08-08T14:49:10;4.83;;;0.93;;
36747;SDS011;22716;51.556;5.080;2023-08-08T14:51:38;3.10;;;1.13;;
36747;SDS011;22716;51.556;5.080;2023-08-08T14:54:07;3.00;;;0.98;;
36747;SDS011;22716;51.556;5.080;2023-08-08T14:56:39;5.10;;;0.90;;
36747;SDS011;22716;51.556;5.080;2023-08-08T14:59:07;5.13;;;1.40;;